Flight Track Log - Related Links

Times and Time Zones

All times are in EDT time to prevent confusion due to time zone crossing. See the ACA860 flight status page for this flight to view local times or setup timezone preferences in your user account.

Time Position Orientation Groundspeed Altitude Reporting Facility
EDT Latitude Longitude Course Direction KTS MPH feet Rate Location/Type
Wed 10:57:59 PM 44.9000 -63.4500 65° Northeast 170 196 3,000  Level Moncton Center
Wed 10:58:59 PM 44.9333 -63.3833 55° Northeast 250 288 4,900 2,550 Climbing Moncton Center
Wed 10:59:59 PM 44.9667 -63.2833 65° Northeast 270 311 8,100 2,800 Climbing Moncton Center
Wed 11:00:59 PM 44.9833 -63.1667 79° East 290 334 10,500 2,050 Climbing Moncton Center
Wed 11:01:00 PM 45.1199 -62.8239 65° Northeast  Level FlightAware Approximate
Wed 11:01:59 PM 45.0333 -63.0500 59° Northeast 330 380 12,200  Level Moncton Center
Wed 11:02:00 PM 45.1728 -62.6483 65° Northeast  Level FlightAware Approximate
Wed 11:02:59 PM 45.0833 -62.9000 65° Northeast 380 437 14,800  Level Moncton Center
Wed 11:03:00 PM 45.2309 -62.4741 65° Northeast  Level FlightAware Approximate
Wed 11:03:59 PM 45.1167 -62.7667 70° East 410 472 17,000  Level Moncton Center
Wed 11:04:59 PM 45.1667 -62.6000 67° East 430 495 19,100 2,100 Climbing Moncton Center
Wed 11:05:59 PM 45.2000 -62.4500 72° East 440 506 21,200 2,050 Climbing Moncton Center
Wed 11:06:59 PM 45.2500 -62.2833 67° East 460 529 23,200 1,950 Climbing Moncton Center
Wed 11:07:59 PM 45.3000 -62.0833 70° East 470 541 25,100 1,161 Climbing Moncton Center
Wed 11:13:42 PM 45.6060 -61.0900 70° East 489 563 31,000 924 Climbing FlightAware ADS-B
Wed 11:14:22 PM 45.6380 -60.9710 69° East 491 565 31,000  Level FlightAware ADS-B
Wed 11:15:02 PM 45.6720 -60.8470 69° East 493 567 31,000  Level FlightAware ADS-B
Wed 11:15:47 PM 45.7080 -60.7130 69° East 493 567 31,000  Level FlightAware ADS-B
Wed 11:16:32 PM 45.7450 -60.5750 69° East 492 566 31,000  Level FlightAware ADS-B
Wed 11:17:12 PM 45.7780 -60.4530 69° East 491 565 31,000  Level FlightAware ADS-B
Wed 11:17:52 PM 45.8100 -60.3310 69° East 488 562 31,000  Level FlightAware ADS-B
Wed 11:18:37 PM 45.8450 -60.1990 69° East 486 559 31,000  Level FlightAware ADS-B
Wed 11:19:17 PM 45.8760 -60.0790 70° East 485 558 31,000  Level FlightAware ADS-B
Wed 11:19:57 PM 45.9080 -59.9590 69° East 484 557 31,000  Level FlightAware ADS-B
Wed 11:20:42 PM 45.9440 -59.8190 70° East 484 557 31,000  Level FlightAware ADS-B
Wed 11:21:22 PM 45.9750 -59.6980 70° East 485 558 31,000  Level FlightAware ADS-B
Wed 11:22:02 PM 46.0050 -59.5800 70° East 486 559 31,000  Level FlightAware ADS-B
Wed 11:22:47 PM 46.0400 -59.4450 69° East 486 559 31,000  Level FlightAware ADS-B
Wed 11:23:27 PM 46.0700 -59.3240 70° East 486 559 31,000  Level FlightAware ADS-B
Wed 11:24:12 PM 46.1060 -59.1820 70° East 488 562 31,000  Level FlightAware ADS-B
Wed 11:24:52 PM 46.1370 -59.0620 70° East 491 565 31,000  Level FlightAware ADS-B
Wed 11:25:37 PM 46.1710 -58.9240 70° East 501 577 31,000  Level FlightAware ADS-B
Wed 11:26:17 PM 46.2020 -58.7980 70° East 504 580 31,000  Level FlightAware ADS-B
Wed 11:26:57 PM 46.2340 -58.6700 70° East 507 583 31,000  Level FlightAware ADS-B
Wed 11:27:42 PM 46.2690 -58.5260 71° East 509 586 31,000  Level FlightAware ADS-B
Wed 11:28:22 PM 46.3010 -58.3960 70° East 511 588 31,000  Level FlightAware ADS-B
Wed 11:29:07 PM 46.3350 -58.2560 71° East 512 589 31,000  Level FlightAware ADS-B
Wed 11:29:47 PM 46.3650 -58.1300 71° East 512 589 31,000  Level FlightAware ADS-B
Wed 11:30:22 PM 46.3930 -58.0160 70° East 512 589 31,000  Level FlightAware ADS-B
Wed 11:31:12 PM 46.4310 -57.8590 71° East 512 589 31,000  Level FlightAware ADS-B
Wed 11:31:52 PM 46.4580 -57.7500 70° East 512 589 31,000  Level FlightAware ADS-B
Wed 11:32:32 PM 46.4860 -57.6400 70° East 512 589 31,000  Level FlightAware ADS-B
Wed 11:33:12 PM 46.5130 -57.5300 70° East 512 589 31,000  Level FlightAware ADS-B
Wed 11:33:52 PM 46.5410 -57.4200 70° East 512 589 31,000  Level FlightAware ADS-B
Wed 11:34:42 PM 46.5750 -57.2820 70° East 512 589 31,000  Level FlightAware ADS-B
Wed 11:35:22 PM 46.6030 -57.1720 70° East 512 589 31,000  Level FlightAware ADS-B
Wed 11:36:02 PM 46.6300 -57.0620 70° East 512 589 31,000  Level FlightAware ADS-B
Wed 11:36:42 PM 46.6580 -56.9520 70° East 512 589 31,000  Level FlightAware ADS-B
Wed 11:37:22 PM 46.6850 -56.8410 70° East 512 589 31,000  Level FlightAware ADS-B
Wed 11:38:12 PM 46.7200 -56.7030 70° East 512 589 31,000 800 Level FlightAware ADS-B
Wed 11:38:52 PM 46.7830 -56.3350 76° East 534 615 32,200 2,400 Climbing FlightAware ADS-B
Wed 11:39:32 PM 46.8140 -56.2000 71° East 506 582 34,200 2,100 Climbing FlightAware ADS-B
Wed 11:40:12 PM 46.8380 -56.0880 73° East 491 565 35,000 565 Climbing FlightAware ADS-B
Wed 11:40:57 PM 46.8690 -55.9580 71° East 491 565 35,000  Level FlightAware ADS-B
Wed 11:41:42 PM 46.9060 -55.7830 73° East 515 593 35,000  Level FlightAware ADS-B
Wed 11:42:22 PM 46.9350 -55.6500 72° East 520 598 35,000  Level FlightAware ADS-B
Wed 11:43:02 PM 46.9640 -55.5150 72° East 522 601 35,000  Level FlightAware ADS-B
Wed 11:43:47 PM 46.9950 -55.3690 73° East 521 600 35,000  Level FlightAware ADS-B
Wed 11:44:27 PM 47.0240 -55.2360 72° East 522 601 35,000  Level FlightAware ADS-B
Wed 11:45:12 PM 47.0580 -55.0770 73° East 524 603 35,000  Level FlightAware ADS-B
Wed 11:45:52 PM 47.0850 -54.9460 73° East 522 601 35,000  Level FlightAware ADS-B
Wed 11:46:32 PM 47.1140 -54.8100 73° East 521 600 35,000  Level FlightAware ADS-B
Wed 11:47:17 PM 47.1450 -54.6590 73° East 520 598 35,000  Level FlightAware ADS-B
Wed 11:47:57 PM 47.1730 -54.5240 73° East 522 601 35,000  Level FlightAware ADS-B
Wed 11:48:37 PM 47.2010 -54.3870 73° East 522 601 35,000  Level FlightAware ADS-B
Wed 11:49:22 PM 47.2320 -54.2370 73° East 523 602 35,000  Level FlightAware ADS-B
Wed 11:50:02 PM 47.2600 -54.0970 74° East 523 602 35,000  Level FlightAware ADS-B
Wed 11:50:47 PM 47.2900 -53.9470 74° East 522 601 35,000  Level FlightAware ADS-B
Wed 11:51:27 PM 47.3180 -53.8070 74° East 522 601 35,000  Level FlightAware ADS-B
Wed 11:52:12 PM 47.3470 -53.6560 74° East 526 605 35,000  Level FlightAware ADS-B
Wed 11:52:52 PM 47.3750 -53.5180 73° East 525 604 35,000  Level FlightAware ADS-B
Wed 11:53:32 PM 47.4010 -53.3820 74° East 523 602 35,000  Level FlightAware ADS-B
Wed 11:54:17 PM 47.4320 -53.2230 74° East 521 600 35,000  Level FlightAware ADS-B
Wed 11:55:02 PM 47.4600 -53.0740 74° East 523 602 35,000  Level FlightAware ADS-B
Wed 11:55:37 PM 47.4840 -52.9500 74° East 523 602 35,000  Level FlightAware ADS-B
Wed 11:56:27 PM 47.5170 -52.7770 74° East 524 603 35,000  Level FlightAware ADS-B
Wed 11:57:07 PM 47.5420 -52.6410 75° East 523 602 35,000  Level FlightAware ADS-B
Wed 11:57:47 PM 47.5680 -52.5020 74° East 524 603 35,000  Level FlightAware ADS-B
Wed 11:58:32 PM 47.5960 -52.3500 75° East 524 603 35,000  Level FlightAware ADS-B
Wed 11:59:12 PM 47.6210 -52.2110 75° East 526 605 35,000  Level FlightAware ADS-B
Wed 11:59:57 PM 47.6500 -52.0550 75° East 524 603 35,000  Level FlightAware ADS-B
Thu 12:00:37 AM 47.6740 -51.9200 75° East 524 603 35,000  Level FlightAware ADS-B
Thu 12:01:17 AM 47.6980 -51.7840 75° East 526 605 35,000  Level FlightAware ADS-B
Thu 12:02:02 AM 47.7270 -51.6230 75° East 525 604 35,000  Level FlightAware ADS-B
Thu 12:02:42 AM 47.7510 -51.4860 75° East 527 606 35,000  Level FlightAware ADS-B
Thu 12:03:27 AM 47.7790 -51.3240 76° East 527 606 35,000  Level FlightAware ADS-B
Thu 12:04:07 AM 47.8020 -51.1880 76° East 528 608 35,000  Level FlightAware ADS-B
Thu 12:04:47 AM 47.8270 -51.0430 76° East 529 609 35,000  Level FlightAware ADS-B
Thu 12:05:32 AM 47.8540 -50.8860 76° East 529 609 35,000  Level FlightAware ADS-B
Thu 12:06:12 AM 47.8770 -50.7470 76° East 529 609 35,000  Level FlightAware ADS-B
Thu 12:06:57 AM 47.9040 -50.5860 76° East 518 596 35,000  Level FlightAware ADS-B
Thu 12:07:27 AM 47.9210 -50.4870 76° East 512 589 35,000  Level FlightAware ADS-B
Thu 12:08:17 AM 47.9470 -50.3230 77° East 512 589 35,000  Level FlightAware ADS-B
Thu 12:08:57 AM 47.9650 -50.2060 77° East 512 589 35,000  Level FlightAware ADS-B
Thu 12:09:37 AM 47.9830 -50.0890 77° East 512 589 35,000  Level FlightAware ADS-B
Thu 12:10:17 AM 48.0010 -49.9720 77° East 512 589 35,000  Level FlightAware ADS-B
Thu 12:10:57 AM 48.0190 -49.8540 77° East 512 589 35,000  Level FlightAware ADS-B
Thu 12:11:11 AM 48.0000 -50.0000 69° East 503 579 35,000  Level ETMS Enhanced Traffic Management System
Thu 12:11:47 AM 48.0420 -49.7080 77° East 512 589 35,000  Level FlightAware ADS-B
Thu 12:12:27 AM 48.0600 -49.5900 77° East 512 589 35,000  Level FlightAware ADS-B
Thu 12:13:07 AM 48.0780 -49.4730 77° East 512 589 35,000  Level FlightAware ADS-B
Thu 12:13:47 AM 48.0960 -49.3550 77° East 512 589 35,000  Level FlightAware ADS-B
Thu 12:14:27 AM 48.1140 -49.2380 77° East 512 589 35,000  Level FlightAware ADS-B
Thu 12:15:07 AM 48.1320 -49.1200 77° East 512 589 35,000  Level FlightAware ADS-B
Thu 12:15:47 AM 48.1510 -49.0030 76° East 512 589 35,000  Level FlightAware ADS-B
Thu 12:16:37 AM 48.1730 -48.8560 69° East 512 589 35,000  Level FlightAware ADS-B
Thu 12:17:17 AM 48.1910 -48.7380 77° East 512 589 35,000  Level FlightAware ADS-B
Thu 12:18:10 AM 48.3833 -48.2333 77° East 520 598 35,000  Level Gander Center
Thu 12:19:10 AM 48.4167 -48.0500 75° East 520 598 35,000  Level Gander Center
Thu 12:20:10 AM 48.4667 -47.8500 69° East 520 598 35,000  Level Gander Center
Thu 12:21:10 AM 48.5000 -47.6333 77° East 520 598 35,000  Level Gander Center
Thu 12:22:10 AM 48.5500 -47.4500 68° East 520 598 35,000  Level Gander Center
Thu 12:23:10 AM 48.6167 -47.2333 65° Northeast 520 598 35,000  Level Gander Center
Thu 12:24:10 AM 48.6500 -47.0167 77° East 520 598 35,000  Level Gander Center
Thu 12:25:10 AM 48.7000 -46.7833 72° East 520 598 35,000  Level Gander Center
Thu 12:26:15 AM 48.7333 -46.6000 75° East 520 598 35,000  Level Gander Center
Thu 12:28:00 AM 48.8119 -46.2670 70° East  Level FlightAware Approximate
Thu 12:35:00 AM 49.1165 -44.9246 70° East  Level FlightAware Approximate
Thu 12:36:00 AM 49.1587 -44.7315 71° East  Level FlightAware Approximate
Thu 12:37:00 AM 49.2006 -44.5381 72° East  Level FlightAware Approximate
Thu 12:38:00 AM 49.2422 -44.3443 72° East  Level FlightAware Approximate
Thu 12:39:00 AM 49.2835 -44.1502 72° East  Level FlightAware Approximate
Thu 12:40:00 AM 49.3244 -43.9558 72° East  Level FlightAware Approximate
Thu 12:41:00 AM 49.3631 -43.7591 75° East  Level FlightAware Approximate
Thu 12:42:00 AM 49.3978 -43.5616 75° East  Level FlightAware Approximate
Thu 12:43:00 AM 49.4322 -43.3638 75° East  Level FlightAware Approximate
Thu 12:44:00 AM 49.4662 -43.1657 75° East  Level FlightAware Approximate
Thu 12:45:00 AM 49.4998 -42.9673 75° East  Level FlightAware Approximate
Thu 12:46:00 AM 49.5332 -42.7686 75° East  Level FlightAware Approximate
Thu 12:47:00 AM 49.5662 -42.5697 76° East  Level FlightAware Approximate
Thu 12:48:00 AM 49.6018 -42.3718 74° East  Level FlightAware Approximate
Thu 12:49:00 AM 49.6372 -42.1735 75° East  Level FlightAware Approximate
Thu 12:50:00 AM 49.6723 -41.9750 75° East  Level FlightAware Approximate
Thu 12:51:00 AM 49.7070 -41.7762 75° East  Level FlightAware Approximate
Thu 12:52:00 AM 49.7414 -41.5772 75° East  Level FlightAware Approximate
Thu 12:53:00 AM 49.7754 -41.3778 75° East  Level FlightAware Approximate
Thu 12:54:00 AM 49.8091 -41.1782 75° East  Level FlightAware Approximate
Thu 12:55:00 AM 49.8424 -40.9783 75° East  Level FlightAware Approximate
Thu 12:56:00 AM 49.8754 -40.7781 76° East  Level FlightAware Approximate
Thu 12:57:00 AM 49.9081 -40.5776 76° East  Level FlightAware Approximate
Thu 12:58:00 AM 49.9404 -40.3769 76° East  Level FlightAware Approximate
Thu 12:59:00 AM 49.9724 -40.1759 76° East  Level FlightAware Approximate
Thu 01:00:00 AM 50.0037 -39.9745 77° East  Level FlightAware Approximate
Thu 01:00:00 AM 50.0000 -40.0000 77° East 492 566 35,000  Level ETMS Enhanced Traffic Management System
Thu 01:01:00 AM 50.0329 -39.7723 77° East  Level FlightAware Approximate
Thu 01:02:00 AM 50.0618 -39.5698 77° East  Level FlightAware Approximate
Thu 01:03:00 AM 50.0904 -39.3670 78° East  Level FlightAware Approximate
Thu 01:04:00 AM 50.1185 -39.1641 78° East  Level FlightAware Approximate
Thu 01:05:00 AM 50.1464 -38.9608 78° East  Level FlightAware Approximate
Thu 01:06:00 AM 50.2573 -38.1205 79° East 492 566 35,000  Level FlightAware Transoceanic
Thu 01:07:00 AM 50.2840 -37.9105 79° East 492 566 35,000  Level FlightAware Transoceanic
Thu 01:08:00 AM 50.3103 -37.7002 79° East 492 566 35,000  Level FlightAware Transoceanic
Thu 01:09:00 AM 50.3363 -37.4897 79° East 492 566 35,000  Level FlightAware Transoceanic
Thu 01:10:00 AM 50.3619 -37.2789 79° East 492 566 35,000  Level FlightAware Transoceanic
Thu 01:11:00 AM 50.3870 -37.0680 79° East 492 566 35,000  Level FlightAware Transoceanic
Thu 01:12:00 AM 50.4118 -36.8568 80° East 492 566 35,000  Level FlightAware Transoceanic
Thu 01:13:00 AM 50.4363 -36.6454 80° East 492 566 35,000  Level FlightAware Transoceanic
Thu 01:14:00 AM 50.4603 -36.4337 80° East 492 566 35,000  Level FlightAware Transoceanic
Thu 01:15:00 AM 50.4840 -36.2219 80° East 492 566 35,000  Level FlightAware Transoceanic
Thu 01:16:00 AM 50.5072 -36.0098 80° East 492 566 35,000  Level FlightAware Transoceanic
Thu 01:17:00 AM 50.5301 -35.7976 80° East 492 566 35,000  Level FlightAware Transoceanic
Thu 01:18:00 AM 50.5526 -35.5851 81° East 492 566 35,000  Level FlightAware Transoceanic
Thu 01:19:00 AM 50.5747 -35.3724 81° East 492 566 35,000  Level FlightAware Transoceanic
Thu 01:20:00 AM 50.5965 -35.1596 81° East 492 566 35,000  Level FlightAware Transoceanic
Thu 01:21:00 AM 50.6178 -34.9465 81° East 492 566 35,000  Level FlightAware Transoceanic
Thu 01:22:00 AM 50.6387 -34.7333 81° East 492 566 35,000  Level FlightAware Transoceanic
Thu 01:23:00 AM 50.6593 -34.5198 81° East 492 566 35,000  Level FlightAware Transoceanic
Thu 01:24:00 AM 50.6795 -34.3062 82° East 492 566 35,000  Level FlightAware Transoceanic
Thu 01:25:00 AM 50.6992 -34.0924 82° East 492 566 35,000  Level FlightAware Transoceanic
Thu 01:26:00 AM 50.7186 -33.8784 82° East 492 566 35,000  Level FlightAware Transoceanic
Thu 01:27:00 AM 50.7376 -33.6642 82° East 492 566 35,000  Level FlightAware Transoceanic
Thu 01:28:00 AM 50.7562 -33.4499 82° East 492 566 35,000  Level FlightAware Transoceanic
Thu 01:29:00 AM 50.7744 -33.2354 82° East 492 566 35,000  Level FlightAware Transoceanic
Thu 01:30:00 AM 50.7922 -33.0207 83° East 492 566 35,000  Level FlightAware Transoceanic
Thu 01:31:00 AM 50.8097 -32.8059 83° East 492 566 35,000  Level FlightAware Transoceanic
Thu 01:32:00 AM 50.8267 -32.5909 83° East 492 566 35,000  Level FlightAware Transoceanic
Thu 01:33:00 AM 50.8433 -32.3758 83° East 492 566 35,000  Level FlightAware Transoceanic
Thu 01:34:00 AM 50.8595 -32.1605 83° East 492 566 35,000  Level FlightAware Transoceanic
Thu 01:35:00 AM 50.8754 -31.9451 83° East 492 566 35,000  Level FlightAware Transoceanic
Thu 01:36:00 AM 50.8908 -31.7295 84° East 492 566 35,000  Level FlightAware Transoceanic
Thu 01:37:00 AM 50.9059 -31.5137 84° East 492 566 35,000  Level FlightAware Transoceanic
Thu 01:38:00 AM 50.9205 -31.2979 84° East 492 566 35,000  Level FlightAware Transoceanic
Thu 01:39:00 AM 50.9347 -31.0819 84° East 492 566 35,000  Level FlightAware Transoceanic
Thu 01:40:00 AM 50.9486 -30.8657 84° East 492 566 35,000  Level FlightAware Transoceanic
Thu 01:41:00 AM 50.9621 -30.6495 84° East 492 566 35,000  Level FlightAware Transoceanic
Thu 01:42:00 AM 50.9751 -30.4331 85° East 492 566 35,000  Level FlightAware Transoceanic
Thu 01:43:00 AM 50.9878 -30.2166 85° East 492 566 35,000  Level FlightAware Transoceanic
Thu 01:44:00 AM 50.9997 -30.0058 85° East  Level FlightAware Approximate
Thu 01:45:00 AM 51.0111 -29.7949 85° East  Level FlightAware Approximate
Thu 01:46:00 AM 51.0084 -29.8005 86° East  Level FlightAware Approximate
Thu 01:47:00 AM 51.0169 -29.5892 86° East  Level FlightAware Approximate
Thu 01:47:00 AM 51.0000 -30.0000 86° East 481 554 35,000  Level ETMS Enhanced Traffic Management System
Thu 01:48:00 AM 51.0250 -29.3778 86° East  Level FlightAware Approximate
Thu 01:49:00 AM 51.0327 -29.1664 87° East  Level FlightAware Approximate
Thu 01:50:00 AM 51.0400 -28.9548 87° East  Level FlightAware Approximate
Thu 01:51:00 AM 51.0470 -28.7433 87° East  Level FlightAware Approximate
Thu 01:52:00 AM 51.0536 -28.5316 87° East  Level FlightAware Approximate
Thu 01:53:00 AM 51.0661 -28.0880 88° East 481 554 35,000  Level FlightAware Transoceanic
Thu 01:54:00 AM 51.0715 -27.8753 88° East 481 554 35,000  Level FlightAware Transoceanic
Thu 01:55:00 AM 51.0765 -27.6625 88° East 481 554 35,000  Level FlightAware Transoceanic
Thu 01:56:00 AM 51.0812 -27.4497 88° East 481 554 35,000  Level FlightAware Transoceanic
Thu 01:57:00 AM 51.0854 -27.2368 88° East 481 554 35,000  Level FlightAware Transoceanic
Thu 01:58:00 AM 51.0893 -27.0239 88° East 481 554 35,000  Level FlightAware Transoceanic
Thu 01:59:00 AM 51.0928 -26.8109 89° East 481 554 35,000  Level FlightAware Transoceanic
Thu 02:00:00 AM 51.0959 -26.5979 89° East 481 554 35,000  Level FlightAware Transoceanic
Thu 02:01:00 AM 51.0986 -26.3849 89° East 481 554 35,000  Level FlightAware Transoceanic
Thu 02:02:00 AM 51.1009 -26.1719 89° East 481 554 35,000  Level FlightAware Transoceanic
Thu 02:03:00 AM 51.1029 -25.9589 89° East 481 554 35,000  Level FlightAware Transoceanic
Thu 02:04:00 AM 51.1044 -25.7458 89° East 481 554 35,000  Level FlightAware Transoceanic
Thu 02:05:00 AM 51.1056 -25.5327 90° East 481 554 35,000  Level FlightAware Transoceanic
Thu 02:06:00 AM 51.1064 -25.3196 90° East 481 554 35,000  Level FlightAware Transoceanic
Thu 02:07:00 AM 51.1067 -25.1066 90° East 481 554 35,000  Level FlightAware Transoceanic
Thu 02:08:00 AM 51.1067 -24.8934 90° East 481 554 35,000  Level FlightAware Transoceanic
Thu 02:09:00 AM 51.1064 -24.6804 90° East 481 554 35,000  Level FlightAware Transoceanic
Thu 02:10:00 AM 51.1056 -24.4673 90° East 481 554 35,000  Level FlightAware Transoceanic
Thu 02:11:00 AM 51.1044 -24.2542 91° East 481 554 35,000  Level FlightAware Transoceanic
Thu 02:12:00 AM 51.1029 -24.0411 91° East 481 554 35,000  Level FlightAware Transoceanic
Thu 02:13:00 AM 51.1009 -23.8281 91° East 481 554 35,000  Level FlightAware Transoceanic
Thu 02:14:00 AM 51.0986 -23.6151 91° East 481 554 35,000  Level FlightAware Transoceanic
Thu 02:15:00 AM 51.0959 -23.4021 91° East 481 554 35,000  Level FlightAware Transoceanic
Thu 02:16:00 AM 51.0928 -23.1891 91° East 481 554 35,000  Level FlightAware Transoceanic
Thu 02:17:00 AM 51.0893 -22.9761 92° East 481 554 35,000  Level FlightAware Transoceanic
Thu 02:18:00 AM 51.0854 -22.7632 92° East 481 554 35,000  Level FlightAware Transoceanic
Thu 02:19:00 AM 51.0812 -22.5503 92° East 481 554 35,000  Level FlightAware Transoceanic
Thu 02:20:00 AM 51.0765 -22.3375 92° East 481 554 35,000  Level FlightAware Transoceanic
Thu 02:21:00 AM 51.0715 -22.1247 92° East 481 554 35,000  Level FlightAware Transoceanic
Thu 02:22:00 AM 51.0661 -21.9120 92° East 481 554 35,000  Level FlightAware Transoceanic
Thu 02:23:00 AM 51.0603 -21.6993 93° East 481 554 35,000  Level FlightAware Transoceanic
Thu 02:24:00 AM 51.0541 -21.4866 93° East 481 554 35,000  Level FlightAware Transoceanic
Thu 02:25:00 AM 51.0475 -21.2740 93° East 481 554 35,000  Level FlightAware Transoceanic
Thu 02:26:00 AM 51.0406 -21.0615 93° East 481 554 35,000  Level FlightAware Transoceanic
Thu 02:27:00 AM 51.0332 -20.8491 93° East 481 554 35,000  Level FlightAware Transoceanic
Thu 02:28:00 AM 51.0255 -20.6367 93° East 481 554 35,000  Level FlightAware Transoceanic
Thu 02:29:00 AM 51.0174 -20.4244 94° East 481 554 35,000  Level FlightAware Transoceanic
Thu 02:30:00 AM 51.0089 -20.2122 94° East 481 554 35,000  Level FlightAware Transoceanic
Thu 02:31:00 AM 51.0000 -20.0009 94° East  Level FlightAware Approximate
Thu 02:32:00 AM 50.9908 -19.7898 94° East  Level FlightAware Approximate
Thu 02:33:00 AM 51.0228 -19.7933 80° East  Level FlightAware Approximate
Thu 02:34:00 AM 51.0454 -19.5846 80° East  Level FlightAware Approximate
Thu 02:35:00 AM 51.0677 -19.3756 80° East  Level FlightAware Approximate
Thu 02:36:00 AM 51.0896 -19.1665 80° East  Level FlightAware Approximate
Thu 02:37:00 AM 51.1111 -18.9571 81° East  Level FlightAware Approximate
Thu 02:38:00 AM 51.1322 -18.7476 81° East  Level FlightAware Approximate
Thu 02:39:00 AM 51.1530 -18.5379 81° East  Level FlightAware Approximate
Thu 02:40:00 AM 51.1734 -18.3280 81° East  Level FlightAware Approximate
Thu 02:41:00 AM 51.1934 -18.1179 81° East  Level FlightAware Approximate
Thu 02:42:00 AM 51.2131 -17.9076 81° East  Level FlightAware Approximate
Thu 02:43:00 AM 51.2323 -17.6972 82° East  Level FlightAware Approximate
Thu 02:44:00 AM 51.2513 -17.4865 81° East  Level FlightAware Approximate
Thu 02:45:00 AM 51.2717 -17.2762 81° East  Level FlightAware Approximate
Thu 02:46:00 AM 51.2916 -17.0656 81° East  Level FlightAware Approximate
Thu 02:47:00 AM 51.3112 -16.8549 81° East  Level FlightAware Approximate
Thu 02:48:00 AM 51.3304 -16.6439 82° East  Level FlightAware Approximate
Thu 02:49:00 AM 51.3493 -16.4329 82° East  Level FlightAware Approximate
Thu 02:50:00 AM 51.3677 -16.2216 82° East  Level FlightAware Approximate
Thu 02:51:00 AM 51.3858 -16.0102 82° East  Level FlightAware Approximate
Thu 02:52:00 AM 51.4035 -15.7986 82° East  Level FlightAware Approximate
Thu 02:53:00 AM 51.4208 -15.5868 82° East  Level FlightAware Approximate
Thu 02:54:00 AM 51.4377 -15.3749 83° East  Level FlightAware Approximate
Thu 02:55:00 AM 51.4542 -15.1628 83° East  Level FlightAware Approximate
Thu 02:56:00 AM 51.4695 -14.9504 85° East  Level FlightAware Approximate
Thu 02:57:00 AM 51.4813 -14.7374 85° East  Level FlightAware Approximate
Thu 02:58:00 AM 51.4954 -14.5247 84° East  Level FlightAware Approximate
Thu 02:59:00 AM 51.5098 -14.3120 84° East  Level FlightAware Approximate
Thu 03:00:00 AM 51.5237 -14.0991 84° East  Level FlightAware Approximate
Thu 03:01:00 AM 51.5373 -13.8861 84° East  Level FlightAware Approximate
Thu 03:02:00 AM 51.5504 -13.6729 84° East  Level FlightAware Approximate
Thu 03:03:00 AM 51.5632 -13.4597 84° East  Level FlightAware Approximate
Thu 03:04:00 AM 51.5756 -13.2463 85° East  Level FlightAware Approximate
Thu 03:05:00 AM 51.5877 -13.0328 85° East  Level FlightAware Approximate
Thu 03:06:00 AM 51.5993 -12.8192 85° East  Level FlightAware Approximate
Thu 03:07:00 AM 51.6105 -12.6055 85° East  Level FlightAware Approximate
Thu 03:08:00 AM 51.6214 -12.3917 85° East  Level FlightAware Approximate
Thu 03:09:00 AM 51.6318 -12.1778 85° East  Level FlightAware Approximate
Thu 03:10:00 AM 51.6419 -11.9638 86° East  Level FlightAware Approximate
Thu 03:11:00 AM 51.6516 -11.7497 86° East  Level FlightAware Approximate
Thu 03:12:00 AM 51.6609 -11.5355 86° East  Level FlightAware Approximate
Thu 03:13:00 AM 51.6698 -11.3212 86° East  Level FlightAware Approximate
Thu 03:14:00 AM 51.6783 -11.1068 86° East  Level FlightAware Approximate
Thu 03:15:00 AM 51.6864 -10.8924 86° East  Level FlightAware Approximate
Thu 03:15:13 AM 51.4880 -10.5510 87° East 505 581 35,000  Level FlightAware ADS-B
Thu 03:15:58 AM 51.5020 -10.3980 82° East 505 581 35,000  Level FlightAware ADS-B
Thu 03:16:00 AM 51.6942 -10.6779 87° East  Level FlightAware Approximate
Thu 03:16:28 AM 51.5120 -10.2900 81° East 504 580 35,000  Level FlightAware ADS-B
Thu 03:17:18 AM 51.5290 -10.0910 82° East 506 582 35,000  Level FlightAware ADS-B
Thu 03:17:53 AM 51.5400 -9.9670 82° East 507 583 35,000  Level FlightAware ADS-B
Thu 03:18:38 AM 51.5530 -9.8180 82° East 509 586 35,000  Level FlightAware ADS-B
Thu 03:19:28 AM 51.5700 -9.6070 83° East 511 588 35,000  Level FlightAware ADS-B
Thu 03:20:08 AM 51.5830 -9.4570 82° East 511 588 35,000  Level FlightAware ADS-B
Thu 03:20:48 AM 51.5950 -9.3050 83° East 513 590 35,000  Level FlightAware ADS-B
Thu 03:21:33 AM 51.6090 -9.1350 82° East 514 592 35,000 -1,143 Level FlightAware ADS-B
Thu 03:22:12 AM 51.6206 -8.9776 82° East 462 532 33,400  Descending FlightAware UK
Thu 03:22:13 AM 51.6200 -8.9830 82° East 513 590 35,000  Climbing FlightAware ADS-B
Thu 03:22:30 AM 51.6258 -8.9095 82° East 462 532 33,400 -2,571 Descending FlightAware UK
Thu 03:22:48 AM 51.6310 -8.8413 83° East 460 529 33,500 3,429 Climbing FlightAware UK
Thu 03:22:58 AM 51.6330 -8.8130 83° East 513 590 35,000  Climbing FlightAware ADS-B
Thu 03:23:18 AM 51.6397 -8.7276 83° East 460 529 33,500 -2,368 Descending FlightAware UK
Thu 03:23:36 AM 51.6449 -8.6594 83° East 460 529 33,500 4,500 Level FlightAware UK
Thu 03:23:38 AM 51.6450 -8.6630 83° East 514 592 35,000  Climbing FlightAware ADS-B
Thu 03:23:54 AM 51.6500 -8.5910 83° East 462 532 33,500 -2,647 Descending FlightAware UK
Thu 03:24:12 AM 51.6550 -8.5225 83° East 462 532 33,500  Level FlightAware UK
Thu 03:24:30 AM 51.6599 -8.4538 83° East 464 534 33,500 4,286 Level FlightAware UK
Thu 03:24:33 AM 51.6580 -8.4810 83° East 516 594 35,000  Climbing FlightAware ADS-B
Thu 03:24:48 AM 51.6648 -8.3851 83° East 464 534 33,500 -2,727 Descending FlightAware UK
Thu 03:25:06 AM 51.6698 -8.3164 83° East 464 534 33,500 3,000 Level FlightAware UK
Thu 03:25:18 AM 51.6720 -8.2920 83° East 517 595 35,000  Climbing FlightAware ADS-B
Thu 03:25:36 AM 51.6787 -8.2002 83° East 466 536 33,500 -2,500 Descending FlightAware UK
Thu 03:25:54 AM 51.6837 -8.1312 83° East 466 536 33,500 4,091 Level FlightAware UK
Thu 03:25:58 AM 51.6830 -8.1390 83° East 517 595 35,000  Climbing FlightAware ADS-B
Thu 03:26:18 AM 51.6899 -8.0391 83° East 466 536 33,500 -2,368 Descending FlightAware UK
Thu 03:26:36 AM 51.6945 -7.9702 84° East 466 536 33,500 4,500 Level FlightAware UK
Thu 03:26:38 AM 51.6940 -7.9740 84° East 519 597 35,000  Climbing FlightAware ADS-B
Thu 03:26:54 AM 51.6989 -7.9012 84° East 464 534 33,500 -2,647 Descending FlightAware UK
Thu 03:27:12 AM 51.7034 -7.8322 84° East 466 536 33,500 3,103 Level FlightAware UK
Thu 03:27:23 AM 51.7060 -7.8030 84° East 519 597 35,000  Climbing FlightAware ADS-B
Thu 03:27:42 AM 51.7111 -7.7172 84° East 462 532 33,500 -2,919 Descending FlightAware UK
Thu 03:28:00 AM 51.7158 -7.6485 84° East 460 529 33,200 3,429 Descending FlightAware UK
Thu 03:28:03 AM 51.7160 -7.6520 84° East 512 589 34,700 -1,000 Climbing FlightAware ADS-B
Thu 03:28:18 AM 51.7207 -7.5802 84° East 460 529 32,900 -3,818 Descending FlightAware UK
Thu 03:28:36 AM 51.7252 -7.5120 84° East 456 525 32,600 2,200 Descending FlightAware UK
Thu 03:28:48 AM 51.7270 -7.4770 84° East 512 589 34,000 -1,000 Climbing FlightAware ADS-B
Thu 03:29:06 AM 51.7322 -7.3986 84° East 456 525 32,100 -3,833 Descending FlightAware UK
Thu 03:29:24 AM 51.7364 -7.3306 84° East 456 525 31,700 3,000 Descending FlightAware UK
Thu 03:29:28 AM 51.7370 -7.3230 84° East 515 593 33,200 -750 Climbing FlightAware ADS-B
Thu 03:29:48 AM 51.7415 -7.2395 84° East 458 527 31,400 -2,842 Descending FlightAware UK
Thu 03:30:06 AM 51.7456 -7.1709 84° East 456 525 31,400 3,840 Level FlightAware UK
Thu 03:30:13 AM 51.7480 -7.1510 84° East 513 590 33,000  Climbing FlightAware ADS-B
Thu 03:30:30 AM 51.7514 -7.0789 84° East 458 527 31,400 -2,743 Descending FlightAware UK
Thu 03:30:48 AM 51.7561 -7.0105 84° East 456 525 31,400 4,174 Level FlightAware UK
Thu 03:30:53 AM 51.7560 -7.0060 84° East 512 589 33,000  Climbing FlightAware ADS-B
Thu 03:31:12 AM 51.7617 -6.9194 84° East 458 527 31,400 -2,432 Descending FlightAware UK
Thu 03:31:30 AM 51.7657 -6.8510 84° East 458 527 31,500 4,571 Climbing FlightAware UK
Thu 03:31:33 AM 51.7650 -6.8540 84° East 513 590 33,000  Climbing FlightAware ADS-B
Thu 03:31:48 AM 51.7697 -6.7827 84° East 458 527 31,500 -2,727 Descending FlightAware UK
Thu 03:32:06 AM 51.7737 -6.7143 85° East 458 527 31,500 3,000 Level FlightAware UK
Thu 03:32:18 AM 51.7760 -6.6760 85° East 513 590 33,000 -200 Climbing FlightAware ADS-B
Thu 03:32:36 AM 51.7803 -6.6003 85° East 456 525 31,400  Descending FlightAware UK
Thu 03:32:53 AM 51.7800 -6.5430 91° East 510 587 33,000  Climbing FlightAware ADS-B
Thu 03:32:54 AM 51.7798 -6.5319 91° East 456 525 31,400 -5,053 Descending FlightAware UK
Thu 03:33:12 AM 51.7792 -6.4639 91° East 456 525 31,400 167 Level FlightAware UK
Thu 03:33:30 AM 51.7765 -6.3961 94° East 456 525 31,500 3,097 Climbing FlightAware UK
Thu 03:33:43 AM 51.7740 -6.3550 94° East 507 583 33,000  Climbing FlightAware ADS-B
Thu 03:34:00 AM 51.7717 -6.2829 94° East 454 522 31,500 -2,571 Descending FlightAware UK
Thu 03:34:18 AM 51.7689 -6.2151 94° East 452 520 31,500 3,913 Level FlightAware UK
Thu 03:34:23 AM 51.7690 -6.2170 94° East 508 585 33,000  Climbing FlightAware ADS-B
Thu 03:34:42 AM 51.7650 -6.1245 94° East 454 522 31,500 -2,432 Descending FlightAware UK
Thu 03:35:00 AM 51.7620 -6.0565 94° East 456 525 31,500 4,286 Level FlightAware UK
Thu 03:35:03 AM 51.7610 -6.0510 94° East 510 587 33,000  Climbing FlightAware ADS-B
Thu 03:35:18 AM 51.7591 -5.9884 94° East 456 525 31,500 -2,727 Descending FlightAware UK
Thu 03:35:36 AM 51.7561 -5.9196 94° East 458 527 31,500 3,000 Level FlightAware UK
Thu 03:35:48 AM 51.7540 -5.8820 94° East 512 589 33,000  Climbing FlightAware ADS-B
Thu 03:36:06 AM 51.7509 -5.8058 94° East 460 529 31,500 -2,500 Descending FlightAware UK
Thu 03:36:24 AM 51.7478 -5.7374 94° East 462 532 31,500 4,091 Level FlightAware UK
Thu 03:36:28 AM 51.7470 -5.7320 94° East 513 590 33,000  Climbing FlightAware ADS-B
Thu 03:36:48 AM 51.7434 -5.6461 94° East 460 529 31,500 -2,368 Descending FlightAware UK
Thu 03:37:06 AM 51.7402 -5.5775 94° East 460 529 31,500 3,600 Level FlightAware UK
Thu 03:37:13 AM 51.7390 -5.5620 94° East 514 592 33,000  Climbing FlightAware ADS-B
Thu 03:37:30 AM 51.7358 -5.4858 94° East 462 532 31,500 -2,571 Descending FlightAware UK
Thu 03:37:48 AM 51.7327 -5.4170 94° East 462 532 31,500 3,913 Level FlightAware UK
Thu 03:37:53 AM 51.7320 -5.4080 94° East 515 593 33,000  Climbing FlightAware ADS-B
Thu 03:38:12 AM 51.7282 -5.3251 94° East 458 527 31,500  Descending FlightAware UK
Thu 03:38:33 AM 51.7250 -5.2530 94° East 517 595 33,000  Climbing FlightAware ADS-B
Thu 03:38:48 AM 51.7214 -5.1871 94° East 456 525 31,500 -2,727 Descending FlightAware UK
Thu 03:39:06 AM 51.7179 -5.1173 95° East 458 527 31,500 3,000 Level FlightAware UK
Thu 03:39:18 AM 51.7160 -5.0820 95° East 518 596 33,000  Climbing FlightAware ADS-B
Thu 03:39:36 AM 51.7117 -5.0019 95° East 458 527 31,500 -2,500 Descending FlightAware UK
Thu 03:39:54 AM 51.7081 -4.9326 95° East 460 529 31,500 4,091 Level FlightAware UK
Thu 03:39:58 AM 51.7080 -4.9290 95° East 519 597 33,000  Climbing FlightAware ADS-B
Thu 03:40:24 AM 51.7021 -4.8170 95° East 460 529 31,500  Descending FlightAware UK
Thu 03:40:43 AM 51.6980 -4.7520 95° East 520 598 33,000  Climbing FlightAware ADS-B
Thu 03:41:00 AM 51.6945 -4.6785 95° East 460 529 31,500 -2,571 Descending FlightAware UK
Thu 03:41:18 AM 51.6907 -4.6092 95° East 460 529 31,500 3,913 Level FlightAware UK
Thu 03:41:23 AM 51.6900 -4.6040 95° East 521 600 33,000  Climbing FlightAware ADS-B
Thu 03:41:42 AM 51.6854 -4.5167 95° East 462 532 31,500 -2,432 Descending FlightAware UK
Thu 03:42:00 AM 51.6814 -4.4473 95° East 460 529 31,500 4,286 Level FlightAware UK
Thu 03:42:03 AM 51.6820 -4.4510 95° East 521 600 33,000  Climbing FlightAware ADS-B
Thu 03:42:18 AM 51.6775 -4.3780 95° East 460 529 31,500 -2,727 Descending FlightAware UK
Thu 03:42:36 AM 51.6735 -4.3085 95° East 462 532 31,500 3,000 Level FlightAware UK
Thu 03:42:48 AM 51.6710 -4.2740 95° East 520 598 33,000  Climbing FlightAware ADS-B
Thu 03:43:07 AM 51.6667 -4.1923 95° East 456 525 31,500 -2,432 Descending FlightAware UK
Thu 03:43:25 AM 51.6626 -4.1240 95° East 452 520 31,500 4,286 Level FlightAware UK
Thu 03:43:28 AM 51.6620 -4.1200 95° East 509 586 33,000  Climbing FlightAware ADS-B
Thu 03:43:43 AM 51.6586 -4.0572 95° East 448 516 31,500 -2,727 Descending FlightAware UK
Thu 03:44:01 AM 51.6546 -3.9899 96° East 448 516 31,500 3,600 Level FlightAware UK
Thu 03:44:08 AM 51.6530 -3.9710 96° East 507 583 33,000  Climbing FlightAware ADS-B
Thu 03:44:31 AM 51.6476 -3.8773 96° East 448 516 31,500  Descending FlightAware UK
Thu 03:44:53 AM 51.6430 -3.8090 96° East 508 585 33,000 1,355 Climbing FlightAware ADS-B
Thu 03:45:33 AM 51.6340 -3.6540 95° East 506 582 32,900 -1,839 Descending FlightAware ADS-B
Thu 03:45:55 AM 51.6278 -3.5614 95° East 442 509 31,100 -3,000 Descending FlightAware UK
Thu 03:46:13 AM 51.6238 -3.4975 96° East 436 502 30,900 3,391 Descending FlightAware UK
Thu 03:46:18 AM 51.6230 -3.4840 96° East 489 563 32,400 -1,250 Climbing FlightAware ADS-B
Thu 03:46:37 AM 51.6184 -3.4109 96° East 426 490 30,400 -1,800 Descending FlightAware UK
Thu 03:46:48 AM 51.6159 -3.3735 96° East 510 587 31,500 -2,400 Climbing FlightAware ADS-B
Thu 03:47:07 AM 51.6111 -3.3040 96° East 422 486 29,200 -2,250 Descending FlightAware UK
Thu 03:47:36 AM 51.5999 -3.2065 96° East 510 587 29,700 -2,250 Climbing FlightAware ADS-B
Thu 03:47:55 AM 51.5914 -3.1384 96° East 420 483 27,400 -2,222 Descending FlightAware UK
Thu 03:48:03 AM 51.5879 -3.1123 96° East 469 540 28,700 -2,250 Climbing FlightAware ADS-B
Thu 03:48:19 AM 51.5804 -3.0564 96° East 414 476 26,500 -4,588 Descending FlightAware UK
Thu 03:48:37 AM 51.5722 -2.9959 102° East 410 472 26,100 1,400 Descending FlightAware UK
Thu 03:48:49 AM 51.5668 -2.9593 102° East 457 526 27,200 -2,200 Climbing FlightAware ADS-B
Thu 03:49:07 AM 51.5557 -2.8995 102° East 398 458 25,000 -2,000 Descending FlightAware UK
Thu 03:49:25 AM 51.5455 -2.8433 102° East 452 520 26,000 -1,833 Climbing FlightAware ADS-B
Thu 03:49:43 AM 51.5348 -2.7856 102° East 394 453 23,900 -1,886 Descending FlightAware UK
Thu 03:50:00 AM 51.5253 -2.7353 102° East 438 504 24,900 -1,833 Climbing FlightAware ADS-B
Thu 03:50:19 AM 51.5137 -2.6740 102° East 386 444 22,800 -4,378 Descending FlightAware UK
Thu 03:50:37 AM 51.5032 -2.6195 107° East 384 442 22,200 968 Descending FlightAware UK
Thu 03:50:50 AM 51.4960 -2.5816 107° East 432 497 23,300 -1,667 Climbing FlightAware ADS-B
Thu 03:51:13 AM 51.4828 -2.5110 107° East 380 437 21,200 -1,548 Descending FlightAware UK
Thu 03:51:21 AM 51.4788 -2.4891 107° East 419 482 22,500 -2,000 Climbing FlightAware ADS-B
Thu 03:51:49 AM 51.4628 -2.4054 107° East 370 426 20,000 -1,688 Descending FlightAware UK
Thu 03:51:53 AM 51.4640 -2.4100 107° East 413 475 21,600 7,200 Climbing FlightAware ADS-B
Thu 03:51:59 AM 51.4579 -2.3789 107° East 412 474 21,200 -2,333 Descending FlightAware ADS-B
Thu 03:52:29 AM 51.4410 -2.2913 107° East 406 467 20,200 -3,765 Descending FlightAware ADS-B
Thu 03:52:50 AM 51.4294 -2.2321 107° East 360 414 18,000 -1,875 Descending FlightAware UK
Thu 03:53:01 AM 51.4229 -2.2007 107° East 401 461 19,200 -1,000 Climbing FlightAware ADS-B
Thu 03:53:20 AM 51.4122 -2.1480 107° East 352 405 17,500 -375 Descending FlightAware UK
Thu 03:53:33 AM 51.4050 -2.1131 107° East 398 458 19,000 3,103 Climbing FlightAware ADS-B
Thu 03:53:49 AM 51.3957 -2.0664 108° East 401 461 19,000 -231 Level FlightAware ADS-B
Thu 03:53:59 AM 51.3921 -2.0387 102° East 410 472 18,900 -5,040 Descending FlightAware ADS-B
Thu 03:54:14 AM 51.3903 -1.9911 102° East 356 410 16,900 -1,742 Descending FlightAware UK
Thu 03:54:30 AM 51.3887 -1.9434 102° East 414 476 18,000 -1,833 Climbing FlightAware ADS-B
Thu 03:54:50 AM 51.3867 -1.8813 102° East 352 405 15,800 -2,000 Descending FlightAware UK
Thu 03:55:00 AM 51.3854 -1.8510 102° East 409 471 17,000 439 Climbing FlightAware ADS-B
Thu 03:55:31 AM 51.3815 -1.7597 94° East 404 465 16,100 -3,720 Descending FlightAware ADS-B
Thu 03:55:50 AM 51.3786 -1.7018 94° East 350 403 13,900 -2,000 Descending FlightAware UK
Thu 03:56:01 AM 51.3769 -1.6692 94° East 398 458 15,100 -1,167 Climbing FlightAware ADS-B
Thu 03:56:26 AM 51.3730 -1.5968 94° East 344 396 13,200 -750 Descending FlightAware UK
Thu 03:56:33 AM 51.3722 -1.5791 94° East 392 451 14,700 -500 Climbing FlightAware ADS-B
Thu 03:56:50 AM 51.3696 -1.5302 94° East 322 371 13,000 -581 Descending FlightAware UK
Thu 03:57:04 AM 51.3676 -1.4929 94° East 361 415 14,400 -600 Climbing FlightAware ADS-B
Thu 03:57:20 AM 51.3653 -1.4505 94° East 304 350 12,700 -581 Descending FlightAware UK
Thu 03:57:35 AM 51.3630 -1.4123 94° East 354 407 14,100 -400 Climbing FlightAware ADS-B
Thu 03:57:50 AM 51.3607 -1.3730 94° East 304 350 12,500 -194 Descending FlightAware UK
Thu 03:58:06 AM 51.3583 -1.3317 94° East 349 402 14,000  Climbing FlightAware ADS-B
Thu 03:58:26 AM 51.3552 -1.2789 94° East 304 350 12,500  Descending FlightAware UK
Thu 03:58:37 AM 51.3537 -1.2530 94° East 354 407 14,000  Climbing FlightAware ADS-B
Thu 03:58:56 AM 51.3508 -1.2008 94° East 302 348 12,500  Descending FlightAware UK
Thu 03:59:07 AM 51.3493 -1.1745 94° East 352 405 14,000 2,195 Climbing FlightAware ADS-B
Thu 03:59:37 AM 51.3447 -1.0964 95° East 351 404 14,000 -1,959 Level FlightAware ADS-B
Thu 03:59:56 AM 51.3418 -1.0460 95° East 302 348 12,400  Descending FlightAware UK
Thu 04:00:07 AM 51.3403 -1.0191 95° East 351 404 14,000 1,857 Climbing FlightAware ADS-B
Thu 04:00:38 AM 51.3357 -0.9414 95° East 339 390 13,700 -590 Descending FlightAware ADS-B
Thu 04:01:08 AM 51.3314 -0.8682 95° East 321 369 13,400 -2,449 Descending FlightAware ADS-B
Thu 04:01:27 AM 51.3288 -0.8242 95° East 264 304 11,700 -414 Descending FlightAware UK
Thu 04:01:37 AM 51.3272 -0.8007 95° East 315 362 13,200 -600 Climbing FlightAware ADS-B
Thu 04:01:57 AM 51.3243 -0.7549 95° East 262 302 11,400 -774 Descending FlightAware UK
Thu 04:02:08 AM 51.3228 -0.7314 95° East 314 361 12,800 -600 Climbing FlightAware ADS-B
Thu 04:02:27 AM 51.3200 -0.6866 95° East 260 299 11,100 -600 Descending FlightAware UK
Thu 04:02:38 AM 51.3186 -0.6621 95° East 313 360 12,500 1,941 Climbing FlightAware ADS-B
Thu 04:03:01 AM 51.3153 -0.6087 96° East 308 354 12,200 -808 Descending FlightAware ADS-B
Thu 04:03:30 AM 51.3112 -0.5446 96° East 309 356 11,800 -792 Descending FlightAware ADS-B
Thu 04:03:54 AM 51.3077 -0.4881 96° East 308 354 11,500 -649 Descending FlightAware ADS-B
Thu 04:04:07 AM 51.3062 -0.4597 95° East 309 356 11,400 -522 Descending FlightAware ADS-B
Thu 04:04:17 AM 51.3072 -0.4373 86° East 312 359 11,300 -667 Descending FlightAware ADS-B
Thu 04:04:25 AM 51.3099 -0.4180 77° East 314 361 11,200 -500 Descending FlightAware ADS-B
Thu 04:04:53 AM 51.3195 -0.3559 76° East 310 357 11,000 -308 Descending FlightAware ADS-B
Thu 04:05:04 AM 51.3225 -0.3317 79° East 308 354 11,000  Level FlightAware ADS-B
Thu 04:05:12 AM 51.3224 -0.3146 91° East 306 352 11,000  Level FlightAware ADS-B
Thu 04:05:17 AM 51.3208 -0.3027 102° East 301 346 11,000  Level FlightAware ADS-B
Thu 04:05:23 AM 51.3180 -0.2911 111° Southeast 295 339 11,000  Level FlightAware ADS-B
Thu 04:05:27 AM 51.3154 -0.2839 120° Southeast 290 334 11,000  Level FlightAware ADS-B
Thu 04:05:33 AM 51.3108 -0.2735 125° Southeast 283 326 11,000  Level FlightAware ADS-B
Thu 04:05:39 AM 51.3052 -0.2648 136° Southeast 275 316 11,000  Level FlightAware ADS-B
Thu 04:05:44 AM 51.3001 -0.2586 143° Southeast 268 308 11,000  Level FlightAware ADS-B
Thu 04:05:53 AM 51.2909 -0.2514 154° Southeast 254 292 11,000  Level FlightAware ADS-B
Thu 04:05:57 AM 51.2859 -0.2489 163° South 245 282 11,000  Level FlightAware ADS-B
Thu 04:06:02 AM 51.2813 -0.2476 169° South 239 275 11,000  Level FlightAware ADS-B
Thu 04:06:06 AM 51.2770 -0.2469 174° South 234 269 11,000  Level FlightAware ADS-B
Thu 04:06:12 AM 51.2708 -0.2470 181° South 227 261 11,000  Level FlightAware ADS-B
Thu 04:06:25 AM 51.2571 -0.2520 193° South 215 247 11,000  Level FlightAware ADS-B
Thu 04:06:33 AM 51.2505 -0.2569 205° Southwest 209 241 11,000  Level FlightAware ADS-B
Thu 04:06:36 AM 51.2475 -0.2599 212° Southwest 207 238 11,000  Level FlightAware ADS-B
Thu 04:06:44 AM 51.2421 -0.2666 218° Southwest 202 232 11,000  Level FlightAware ADS-B
Thu 04:06:52 AM 51.2371 -0.2751 227° Southwest 199 229 11,000  Level FlightAware ADS-B
Thu 04:06:57 AM 51.2341 -0.2818 235° Southwest 198 228 11,000  Level FlightAware ADS-B
Thu 04:07:06 AM 51.2303 -0.2934 242° Southwest 196 226 11,000  Level FlightAware ADS-B
Thu 04:07:11 AM 51.2287 -0.3004 250° West 196 226 11,000  Level FlightAware ADS-B
Thu 04:07:16 AM 51.2278 -0.3062 256° West 196 226 11,000  Level FlightAware ADS-B
Thu 04:07:20 AM 51.2271 -0.3121 259° West 196 226 11,000  Level FlightAware ADS-B
Thu 04:07:27 AM 51.2266 -0.3222 265° West 197 227 11,000  Level FlightAware ADS-B
Thu 04:07:30 AM 51.2267 -0.3265 272° West 198 228 11,000  Level FlightAware ADS-B
Thu 04:07:37 AM 51.2275 -0.3371 277° West 201 231 11,000  Level FlightAware ADS-B
Thu 04:07:41 AM 51.2284 -0.3434 283° West 204 235 11,000  Level FlightAware ADS-B
Thu 04:07:47 AM 51.2300 -0.3512 288° West 207 238 11,000  Level FlightAware ADS-B
Thu 04:07:54 AM 51.2333 -0.3615 297° West 211 243 11,000  Level FlightAware ADS-B
Thu 04:08:02 AM 51.2376 -0.3712 305° West 216 249 11,000  Level FlightAware ADS-B
Thu 04:08:08 AM 51.2417 -0.3782 313° West 222 255 11,000  Level FlightAware ADS-B
Thu 04:08:11 AM 51.2447 -0.3823 319° Northwest 226 260 11,000  Level FlightAware ADS-B
Thu 04:08:15 AM 51.2478 -0.3861 323° Northwest 231 266 11,000  Level FlightAware ADS-B
Thu 04:08:21 AM 51.2530 -0.3911 329° Northwest 236 272 11,000  Level FlightAware ADS-B
Thu 04:08:26 AM 51.2584 -0.3964 329° Northwest 234 269 11,000  Level FlightAware ADS-B
Thu 04:08:42 AM 51.2711 -0.4127 321° Northwest 229 264 11,000  Level FlightAware ADS-B
Thu 04:08:52 AM 51.2803 -0.4234 324° Northwest 232 267 11,000  Level FlightAware ADS-B
Thu 04:09:14 AM 51.2991 -0.4432 327° Northwest 231 266 11,000  Level FlightAware ADS-B
Thu 04:09:22 AM 51.3067 -0.4505 329° Northwest 236 272 11,000  Level FlightAware ADS-B
Thu 04:09:25 AM 51.3103 -0.4530 337° Northwest 241 277 11,000  Level FlightAware ADS-B
Thu 04:09:29 AM 51.3139 -0.4547 343° North 250 288 11,000  Level FlightAware ADS-B
Thu 04:09:35 AM 51.3219 -0.4566 352° North 260 299 11,000  Level FlightAware ADS-B
Thu 04:09:40 AM 51.3274 -0.4568 359° North 264 304 11,000  Level FlightAware ADS-B
Thu 04:09:47 AM 51.3367 -0.4558 North 274 315 11,000  Level FlightAware ADS-B
Thu 04:09:51 AM 51.3409 -0.4546 10° North 278 320 11,000  Level FlightAware ADS-B
Thu 04:09:58 AM 51.3494 -0.4503 18° North 286 329 11,000  Level FlightAware ADS-B
Thu 04:10:02 AM 51.3544 -0.4466 25° Northeast 289 333 11,000  Level FlightAware ADS-B
Thu 04:10:06 AM 51.3588 -0.4423 31° Northeast 293 337 11,000  Level FlightAware ADS-B
Thu 04:10:10 AM 51.3633 -0.4368 37° Northeast 297 342 11,000  Level FlightAware ADS-B
Thu 04:10:13 AM 51.3667 -0.4316 44° Northeast 299 344 11,000  Level FlightAware ADS-B
Thu 04:10:19 AM 51.3719 -0.4213 51° Northeast 303 349 11,000  Level FlightAware ADS-B
Thu 04:10:25 AM 51.3759 -0.4100 60° Northeast 306 352 11,000  Level FlightAware ADS-B
Thu 04:10:29 AM 51.3778 -0.4019 69° East 307 353 11,000  Level FlightAware ADS-B
Thu 04:10:33 AM 51.3793 -0.3926 76° East 308 354 11,000  Level FlightAware ADS-B
Thu 04:10:37 AM 51.3800 -0.3838 83° East 307 353 11,000  Level FlightAware ADS-B
Thu 04:10:42 AM 51.3799 -0.3711 91° East 308 354 11,000  Level FlightAware ADS-B
Thu 04:10:49 AM 51.3780 -0.3560 101° East 303 349 11,000  Level FlightAware ADS-B
Thu 04:10:54 AM 51.3757 -0.3465 111° Southeast 297 342 11,000  Level FlightAware ADS-B
Thu 04:10:57 AM 51.3734 -0.3395 118° Southeast 292 336 11,000  Level FlightAware ADS-B
Thu 04:11:04 AM 51.3680 -0.3277 126° Southeast 282 325 11,000  Level FlightAware ADS-B
Thu 04:11:12 AM 51.3604 -0.3172 139° Southeast 271 312 11,000  Level FlightAware ADS-B
Thu 04:11:21 AM 51.3513 -0.3088 150° Southeast 261 300 11,000  Level FlightAware ADS-B
Thu 04:11:44 AM 51.3278 -0.2852 148° Southeast 264 304 11,000  Level FlightAware ADS-B
Thu 04:11:56 AM 51.3154 -0.2730 148° Southeast 262 302 11,000  Level FlightAware ADS-B
Thu 04:12:11 AM 51.3000 -0.2585 150° Southeast 263 303 11,000  Level FlightAware ADS-B
Thu 04:12:17 AM 51.2935 -0.2534 154° Southeast 259 298 11,000  Level FlightAware ADS-B
Thu 04:12:24 AM 51.2852 -0.2502 166° South 242 278 11,000  Level FlightAware ADS-B
Thu 04:12:28 AM 51.2807 -0.2499 178° South 233 268 11,000  Level FlightAware ADS-B
Thu 04:12:38 AM 51.2707 -0.2512 185° South 225 259 11,000  Level FlightAware ADS-B
Thu 04:12:53 AM 51.2566 -0.2577 196° South 215 247 11,000  Level FlightAware ADS-B
Thu 04:13:01 AM 51.2493 -0.2643 209° Southwest 208 239 11,000  Level FlightAware ADS-B
Thu 04:13:10 AM 51.2427 -0.2728 219° Southwest 203 234 11,000  Level FlightAware ADS-B
Thu 04:13:17 AM 51.2383 -0.2806 228° Southwest 200 230 11,000  Level FlightAware ADS-B
Thu 04:13:22 AM 51.2362 -0.2853 235° Southwest 199 229 11,000  Level FlightAware ADS-B
Thu 04:13:35 AM 51.2311 -0.3024 244° Southwest 197 227 11,000  Level FlightAware ADS-B
Thu 04:13:39 AM 51.2299 -0.3089 254° West 197 227 11,000  Level FlightAware ADS-B
Thu 04:13:45 AM 51.2290 -0.3172 260° West 196 226 11,000  Level FlightAware ADS-B
Thu 04:13:52 AM 51.2287 -0.3273 267° West 198 228 11,000  Level FlightAware ADS-B
Thu 04:13:59 AM 51.2294 -0.3383 276° West 201 231 11,000  Level FlightAware ADS-B
Thu 04:14:06 AM 51.2307 -0.3474 283° West 203 234 11,000  Level FlightAware ADS-B
Thu 04:14:13 AM 51.2332 -0.3577 291° West 208 239 11,000  Level FlightAware ADS-B
Thu 04:14:19 AM 51.2360 -0.3660 298° West 211 243 11,000  Level FlightAware ADS-B
Thu 04:14:26 AM 51.2398 -0.3743 306° West 217 250 11,000  Level FlightAware ADS-B
Thu 04:14:32 AM 51.2441 -0.3815 314° West 223 257 11,000  Level FlightAware ADS-B
Thu 04:14:42 AM 51.2528 -0.3914 324° Northwest 233 268 11,000  Level FlightAware ADS-B
Thu 04:14:51 AM 51.2610 -0.3991 330° Northwest 233 268 11,000  Level FlightAware ADS-B
Thu 04:14:54 AM 51.2637 -0.4023 323° Northwest 230 265 11,000  Level FlightAware ADS-B
Thu 04:15:00 AM 51.2688 -0.4089 321° Northwest 226 260 11,000  Level FlightAware ADS-B
Thu 04:15:12 AM 51.2785 -0.4213 321° Northwest 227 261 11,000  Level FlightAware ADS-B
Thu 04:15:22 AM 51.2875 -0.4312 325° Northwest 228 262 11,000  Level FlightAware ADS-B
Thu 04:15:31 AM 51.2948 -0.4400 323° Northwest 227 261 11,000  Level FlightAware ADS-B
Thu 04:15:35 AM 51.2990 -0.4436 332° Northwest 238 274 11,000  Level FlightAware ADS-B
Thu 04:15:39 AM 51.3033 -0.4460 341° North 247 284 11,000  Level FlightAware ADS-B
Thu 04:15:48 AM 51.3129 -0.4480 353° North 262 302 11,000  Level FlightAware ADS-B
Thu 04:15:53 AM 51.3196 -0.4479 360° North 265 305 11,000 -4,286 Level FlightAware ADS-B
Thu 04:16:09 AM 51.3397 -0.4471 360° North 258 297 9,500  Descending FlightAware UK
Thu 04:16:23 AM 51.3568 -0.4472 360° North 264 304 11,000 -200 Climbing FlightAware ADS-B
Thu 04:16:39 AM 51.3763 -0.4470 360° North 256 295 9,400 -188 Descending FlightAware UK
Thu 04:16:55 AM 51.3947 -0.4469 360° North 261 300 10,900 5,625 Climbing FlightAware ADS-B

Login

Don't have an account? Register now (free) for customized features, flight alerts, and more!